Terminal Aerodrome Forecast
Issued by NWS Anchorage, AK

Home | Current Version | Previous Version | Text Only | Print | Product List | Glossary On
Versions: 1 2 3 4 5 6 7 8 9 10 11 12 13 14 15
000
FTAK31 PANC 201444 AAB
TAFANC
TAF AMD
PANC 201444Z 2015/2118 VRB05KT P6SM SKC
     FM210000 16012G20KT P6SM SCT060 BKN120
     FM210600 17005KT P6SM SCT200=

USA.gov is the U.S. government's official web portal to all federal, state and local government web resources and services.